KSAV

Savannah / Hilton Head International Airport

Savannah, Georgia, USA
METAR KSAV 200453Z AUTO 22005KT 10SM CLR 26/23 A2995 RMK AO2 SLP141 T02610228 403440239
Observed Flight Rules
Jun-20 @ 04:53 UTC (51 minutes ago) Visual Flight Rules
Wind Visibility Clouds
220° at 5 knots 10 miles
  • Clear skies
Temperatures Readings
Current 26°C / 79°F
Dewpoint 23°C / 73°F
Humidity 84%
Altimeter 29.95" Hg
Pressure 1014.1 hPa
Elevation 14
METAR KSAV 200453Z AUTO 22005KT 10SM CLR 26/23 A2995 RMK AO2 SLP141 T02610228 403440239
Observed Flight Rules
Jun-20 @ 04:53 UTC
(51 minutes ago)
VFR
Wind Visibility
220° at 5 knots 10 miles
Clouds
  • Clear skies
Temperature Dewpoint
26°C / 79°F 23°C / 73°F
Humidity Altimeter Pressure
84% 29.95" Hg 1014.1 hPa